Time;durP1;ratioP1;P1;durP2;ratioP2;P2;SDS_P1;SDS_P2;PMS_P1;PMS_P2;Temp;Humidity;BMP_temperature;BMP_pressure;BME280_temperature;BME280_humidity;BME280_pressure;Samples;Min_cycle;Max_cycle;Signal;HPM_P1;HPM_P2
2021/05/26 00:02:05;;;;;;;5.80;3.50;;;;;;;10.60;75.60;100351.41;102481;1120;80388;-58
2021/05/26 00:04:12;;;;;;;5.30;3.10;;;;;;;10.62;75.42;100349.38;102489;1121;82112;-56
2021/05/26 00:06:17;;;;;;;6.40;2.90;;;;;;;10.63;75.37;100359.13;102515;1121;79632;-56
2021/05/26 00:08:31;;;;;;;4.60;2.70;;;;;;;10.57;75.50;100356.38;102467;1121;81675;-56
2021/05/26 00:10:37;;;;;;;4.40;3.00;;;;;;;10.60;75.24;100350.59;102479;1121;81398;-58
2021/05/26 00:12:43;;;;;;;5.30;2.90;;;;;;;10.59;75.45;100359.71;102481;1120;81495;-58
2021/05/26 00:14:49;;;;;;;4.20;2.80;;;;;;;10.59;75.51;100354.31;102506;1120;81337;-59
2021/05/26 00:17:13;;;;;;;4.50;3.20;;;;;;;10.58;75.47;100352.63;102496;1121;81158;-58
2021/05/26 00:19:39;;;;;;;5.30;3.20;;;;;;;10.52;75.28;100353.41;102502;1121;80965;-58
2021/05/26 00:22:03;;;;;;;5.20;2.90;;;;;;;10.47;75.26;100353.11;102472;1121;79993;-58
2021/05/26 00:24:28;;;;;;;7.20;3.10;;;;;;;10.45;75.23;100344.38;102502;1121;80675;-56
2021/05/26 00:26:55;;;;;;;3.90;2.80;;;;;;;10.38;75.36;100351.58;102513;1121;81381;-56
2021/05/26 00:29:19;;;;;;;4.60;2.90;;;;;;;10.37;75.39;100355.29;102491;1120;81991;-56
2021/05/26 00:31:43;;;;;;;;;;;;;;;10.29;75.24;100355.39;102513;1121;81679;-56
2021/05/26 00:34:07;;;;;;;4.30;2.60;;;;;;;10.23;75.22;100361.54;102493;1120;80763;-57
2021/05/26 00:36:32;;;;;;;5.40;3.50;;;;;;;10.25;75.35;100362.18;102459;1121;80503;-60
2021/05/26 00:38:57;;;;;;;4.10;2.70;;;;;;;10.18;75.21;100356.72;102530;1121;80659;-58
2021/05/26 00:41:30;;;;;;;4.00;2.80;;;;;;;10.16;75.22;100363.33;102492;1120;80095;-58
2021/05/26 00:43:54;;;;;;;4.50;3.10;;;;;;;10.11;75.54;100366.54;102498;1120;81094;-58
2021/05/26 00:46:19;;;;;;;5.70;2.70;;;;;;;10.11;75.58;100366.54;102483;1120;81175;-58
2021/05/26 00:48:42;;;;;;;;;;;;;;;10.12;75.67;100364.68;102525;1120;80507;-56
2021/05/26 00:51:07;;;;;;;5.70;3.00;;;;;;;10.12;75.26;100368.22;102483;1120;79622;-56
2021/05/26 00:53:33;;;;;;;6.10;2.90;;;;;;;10.14;75.71;100370.76;102483;1120;81277;-56
2021/05/26 00:55:57;;;;;;;5.10;2.60;;;;;;;10.18;75.50;100377.47;102499;1121;79973;-56
2021/05/26 00:58:23;;;;;;;5.00;3.10;;;;;;;10.19;75.55;100389.95;102496;1120;80780;-56
2021/05/26 01:00:32;;;;;;;5.10;2.90;;;;;;;10.21;75.53;100385.20;102509;1120;82027;-58
2021/05/26 01:02:37;;;;;;;12.20;3.40;;;;;;;10.27;75.49;100384.45;102509;1120;79775;-58
2021/05/26 01:04:43;;;;;;;4.40;2.80;;;;;;;10.29;75.58;100385.94;102488;1120;80858;-56
2021/05/26 01:06:52;;;;;;;6.30;2.70;;;;;;;10.30;75.45;100386.78;102485;1120;82121;-56
2021/05/26 01:08:58;;;;;;;5.30;3.10;;;;;;;10.33;75.35;100391.81;102471;1120;82392;-58
2021/05/26 01:11:05;;;;;;;6.50;3.00;;;;;;;10.32;75.06;100384.72;102487;1120;81259;-58
2021/05/26 01:13:12;;;;;;;5.30;2.80;;;;;;;10.33;75.17;100389.11;102493;1121;80866;-58
2021/05/26 01:15:19;;;;;;;4.40;2.70;;;;;;;10.31;74.70;100394.68;102480;1120;81641;-58
2021/05/26 01:17:24;;;;;;;4.20;2.60;;;;;;;10.28;74.95;100396.91;102496;1120;81131;-58
2021/05/26 01:19:30;;;;;;;5.30;2.50;;;;;;;10.22;74.85;100390.39;102502;1120;79956;-56
2021/05/26 01:21:36;;;;;;;5.30;2.50;;;;;;;10.15;74.82;100388.64;102466;1121;80349;-57
2021/05/26 01:23:42;;;;;;;7.00;2.60;;;;;;;10.05;74.63;100389.71;102492;1120;81208;-56
2021/05/26 01:25:53;;;;;;;4.30;2.30;;;;;;;9.95;74.61;100393.72;102527;1121;80885;-56
2021/05/26 01:28:00;;;;;;;5.20;2.10;;;;;;;9.92;74.62;100404.88;102509;1121;81606;-57
2021/05/26 01:30:08;;;;;;;4.30;2.40;;;;;;;9.82;74.63;100417.81;102501;1120;81241;-57
2021/05/26 01:32:14;;;;;;;5.20;2.50;;;;;;;9.72;74.75;100410.00;102514;1120;80586;-57
2021/05/26 01:34:20;;;;;;;4.40;2.00;;;;;;;9.64;74.94;100415.44;102490;1121;80851;-56
2021/05/26 01:36:26;;;;;;;4.20;2.30;;;;;;;9.58;74.68;100424.28;102496;1121;80798;-56
2021/05/26 01:38:31;;;;;;;6.20;2.30;;;;;;;9.56;74.90;100426.30;102486;1121;80961;-57
2021/05/26 01:40:37;;;;;;;4.70;2.20;;;;;;;9.53;74.67;100426.70;102491;1120;81720;-57
2021/05/26 01:42:44;;;;;;;5.30;2.20;;;;;;;9.43;74.98;100432.32;102478;1120;80018;-57
2021/05/26 01:44:50;;;;;;;4.60;2.40;;;;;;;9.39;74.92;100436.39;102516;1121;80940;-57
2021/05/26 01:46:55;;;;;;;6.90;2.10;;;;;;;9.34;74.76;100438.79;102506;1121;81686;-56
2021/05/26 01:49:03;;;;;;;3.90;2.40;;;;;;;9.27;74.85;100442.39;102468;1121;81721;-58
2021/05/26 01:51:09;;;;;;;3.90;2.20;;;;;;;9.22;75.08;100444.80;102487;1121;81186;-58
2021/05/26 01:53:15;;;;;;;5.10;2.00;;;;;;;9.15;75.25;100438.42;102495;1121;81371;-59
2021/05/26 01:55:21;;;;;;;4.10;1.80;;;;;;;9.14;74.98;100445.70;102531;1120;80564;-57
2021/05/26 01:57:26;;;;;;;5.40;2.20;;;;;;;9.10;75.16;100446.21;102508;1121;80736;-57
2021/05/26 01:59:32;;;;;;;3.60;2.00;;;;;;;9.07;75.14;100452.80;102500;1121;81343;-57
2021/05/26 02:01:38;;;;;;;2.50;1.60;;;;;;;9.03;74.94;100453.34;102491;1121;81185;-57
2021/05/26 02:03:45;;;;;;;2.50;1.60;;;;;;;8.96;75.27;100455.05;102462;1121;82536;-57
2021/05/26 02:05:52;;;;;;;4.10;1.80;;;;;;;8.86;75.13;100456.14;102499;1121;81869;-57
2021/05/26 02:07:58;;;;;;;4.00;1.80;;;;;;;8.84;75.40;100450.06;102487;1120;81001;-57
2021/05/26 02:10:04;;;;;;;4.50;1.80;;;;;;;8.80;75.42;100446.06;102496;1120;81704;-57
2021/05/26 02:12:21;;;;;;;3.10;1.70;;;;;;;8.77;75.07;100454.50;102490;1120;80899;-56
2021/05/26 02:14:27;;;;;;;3.30;2.30;;;;;;;8.76;75.41;100452.80;102508;1121;80718;-58
2021/05/26 02:16:33;;;;;;;4.50;1.90;;;;;;;8.74;75.38;100462.92;102494;1121;81691;-58
2021/05/26 02:18:38;;;;;;;3.80;2.10;;;;;;;8.73;75.31;100461.27;102505;1121;81491;-57
2021/05/26 02:20:44;;;;;;;2.90;1.50;;;;;;;8.73;75.21;100455.88;102510;1120;82079;-57
2021/05/26 02:22:53;;;;;;;3.30;1.80;;;;;;;8.69;75.50;100459.92;102475;1120;81982;-57
2021/05/26 02:24:59;;;;;;;3.60;2.50;;;;;;;8.67;75.71;100467.34;102499;1121;81282;-57
2021/05/26 02:27:06;;;;;;;5.20;1.90;;;;;;;8.67;75.62;100467.34;102493;1120;81297;-57
2021/05/26 02:29:11;;;;;;;3.60;2.00;;;;;;;8.67;75.55;100467.34;102484;1121;80328;-57
2021/05/26 02:31:17;;;;;;;3.40;1.90;;;;;;;8.63;75.61;100471.39;102519;1120;80410;-58
2021/05/26 02:33:23;;;;;;;4.50;2.10;;;;;;;8.60;75.47;100474.43;102475;1120;80585;-57
2021/05/26 02:35:29;;;;;;;4.70;1.90;;;;;;;8.59;75.48;100474.63;102499;1120;81444;-57
2021/05/26 02:37:35;;;;;;;3.40;1.90;;;;;;;8.64;75.61;100483.85;102507;1121;81138;-57
2021/05/26 02:39:40;;;;;;;4.80;2.40;;;;;;;8.66;75.37;100480.97;102473;1121;82280;-57
2021/05/26 02:41:46;;;;;;;3.00;1.70;;;;;;;8.65;75.40;100477.44;102460;1120;82297;-57
2021/05/26 02:43:52;;;;;;;3.70;1.90;;;;;;;8.67;75.61;100478.13;102527;1120;81209;-58
2021/05/26 02:45:57;;;;;;;3.20;2.00;;;;;;;8.66;75.34;100479.13;102494;1120;80788;-58
2021/05/26 02:48:04;;;;;;;3.30;1.80;;;;;;;8.64;75.53;100473.08;102485;1121;82023;-59
2021/05/26 02:50:17;;;;;;;3.60;1.90;;;;;;;8.67;75.62;100483.51;102474;1121;79735;-58
2021/05/26 02:52:26;;;;;;;4.30;2.00;;;;;;;8.66;75.46;100472.89;102501;1121;81688;-59
2021/05/26 02:54:31;;;;;;;3.90;1.80;;;;;;;8.69;75.32;100480.63;102488;1120;80657;-57
2021/05/26 02:56:38;;;;;;;3.90;1.90;;;;;;;8.71;75.17;100482.13;102458;1121;81502;-56
2021/05/26 02:58:44;;;;;;;2.10;1.50;;;;;;;8.69;75.10;100476.09;102459;1120;81102;-59
2021/05/26 03:00:49;;;;;;;3.30;2.00;;;;;;;8.65;75.44;100473.92;102458;1121;82402;-60
2021/05/26 03:02:55;;;;;;;3.70;1.90;;;;;;;8.67;75.59;100478.13;102500;1121;81400;-60
2021/05/26 03:05:01;;;;;;;2.80;1.80;;;;;;;8.65;75.54;100479.31;102462;1121;81021;-57
2021/05/26 03:07:07;;;;;;;3.80;2.00;;;;;;;8.63;75.40;100484.86;102511;1121;81572;-57
2021/05/26 03:09:13;;;;;;;3.80;2.10;;;;;;;8.68;75.74;100485.16;102485;1120;81559;-57
2021/05/26 03:11:18;;;;;;;3.80;2.60;;;;;;;8.74;75.35;100489.02;102496;1121;83053;-57
2021/05/26 03:13:27;;;;;;;4.50;2.00;;;;;;;8.78;75.41;100491.20;102494;1120;81259;-58
2021/05/26 03:15:33;;;;;;;4.20;2.20;;;;;;;8.78;75.42;100485.81;102488;1120;81174;-58
2021/05/26 03:17:39;;;;;;;3.00;1.80;;;;;;;8.81;75.38;100485.47;102491;1120;80607;-57
2021/05/26 03:19:45;;;;;;;3.40;2.00;;;;;;;8.83;75.39;100491.51;102504;1121;81598;-57
2021/05/26 03:21:50;;;;;;;4.00;2.00;;;;;;;8.89;75.36;100496.20;102502;1121;80779;-58
2021/05/26 03:23:56;;;;;;;3.10;1.70;;;;;;;8.94;75.26;100494.81;102475;1120;80008;-58
2021/05/26 03:26:01;;;;;;;5.10;2.30;;;;;;;9.02;75.11;100501.00;102484;1120;80456;-58
2021/05/26 03:28:08;;;;;;;4.20;1.80;;;;;;;9.10;75.52;100492.02;102477;1121;81194;-58
2021/05/26 03:30:18;;;;;;;4.10;1.90;;;;;;;9.21;75.08;100502.41;102464;1120;80966;-59
2021/05/26 03:32:25;;;;;;;4.10;1.90;;;;;;;9.34;74.95;100503.49;102502;1121;81296;-59
2021/05/26 03:34:31;;;;;;;3.40;2.00;;;;;;;9.46;75.06;100490.44;102500;1120;81338;-58
2021/05/26 03:36:40;;;;;;;3.50;2.00;;;;;;;9.70;75.21;100492.09;102486;1120;82120;-57
2021/05/26 03:38:48;;;;;;;3.90;1.80;;;;;;;11.15;75.66;100485.91;102519;1121;81959;-59
2021/05/26 03:40:54;;;;;;;5.10;2.20;;;;;;;12.91;74.33;100482.94;102483;1120;81169;-59
2021/05/26 03:43:00;;;;;;;3.60;1.90;;;;;;;14.46;72.71;100480.86;102490;1121;79815;-59
2021/05/26 03:45:09;;;;;;;4.60;1.90;;;;;;;15.71;70.83;100486.61;102513;1120;80124;-58
2021/05/26 03:47:14;;;;;;;2.90;1.70;;;;;;;16.91;68.76;100489.66;102493;1120;80247;-58
2021/05/26 03:49:20;;;;;;;2.80;1.80;;;;;;;17.89;66.35;100490.20;102494;1120;81254;-58
2021/05/26 03:51:26;;;;;;;3.20;1.90;;;;;;;18.68;64.74;100488.81;102507;1120;82331;-58
2021/05/26 03:53:34;;;;;;;2.90;1.70;;;;;;;19.51;62.40;100486.47;102484;1120;80941;-58
2021/05/26 03:55:43;;;;;;;2.70;1.70;;;;;;;19.84;60.50;100481.05;102511;1121;81799;-58
2021/05/26 03:57:50;;;;;;;4.80;1.60;;;;;;;20.20;59.00;100478.89;102478;1121;79834;-58
2021/05/26 03:59:55;;;;;;;2.30;1.40;;;;;;;20.57;57.75;100480.05;102514;1120;80295;-58
2021/05/26 04:02:01;;;;;;;3.70;1.60;;;;;;;21.05;56.14;100471.06;102493;1121;80470;-59
2021/05/26 04:04:07;;;;;;;3.10;1.70;;;;;;;21.37;54.09;100476.71;102498;1121;81955;-60
2021/05/26 04:06:13;;;;;;;2.50;1.40;;;;;;;21.91;52.76;100485.80;102524;1120;81324;-59
2021/05/26 04:08:18;;;;;;;3.30;1.70;;;;;;;21.90;52.10;100487.72;102505;1120;80166;-60
2021/05/26 04:10:24;;;;;;;2.90;1.40;;;;;;;22.15;50.92;100487.94;102497;1120;81820;-58
2021/05/26 04:12:30;;;;;;;2.30;1.40;;;;;;;22.09;49.25;100488.98;102501;1121;82614;-59
2021/05/26 04:14:36;;;;;;;2.50;1.70;;;;;;;21.89;49.26;100483.33;102491;1121;80725;-58
2021/05/26 04:16:42;;;;;;;4.30;1.40;;;;;;;21.96;47.87;100492.17;102482;1121;80362;-58
2021/05/26 04:18:47;;;;;;;2.70;1.50;;;;;;;22.52;47.78;100487.94;102508;1120;81470;-58
2021/05/26 04:20:53;;;;;;;2.40;1.20;;;;;;;22.77;46.90;100490.86;102500;1121;80902;-56
2021/05/26 04:22:59;;;;;;;4.10;1.90;;;;;;;22.86;47.24;100489.26;102476;1121;82091;-58
2021/05/26 04:25:07;;;;;;;2.20;1.20;;;;;;;23.14;45.78;100492.69;102517;1121;81760;-57
2021/05/26 04:27:12;;;;;;;2.00;1.50;;;;;;;22.95;44.88;100506.11;102537;1120;80650;-57
2021/05/26 04:29:19;;;;;;;3.00;1.60;;;;;;;22.73;45.45;100503.52;102486;1120;83082;-58
2021/05/26 04:31:25;;;;;;;2.20;1.40;;;;;;;22.46;45.03;100504.68;102508;1120;81148;-59
2021/05/26 04:33:30;;;;;;;3.40;1.40;;;;;;;22.81;45.13;100508.52;102493;1121;81582;-58
2021/05/26 04:35:36;;;;;;;1.70;1.20;;;;;;;23.10;44.17;100510.88;102500;1121;81239;-57
2021/05/26 04:37:42;;;;;;;1.90;1.20;;;;;;;23.81;43.71;100500.92;102490;1120;80757;-57
2021/05/26 04:39:47;;;;;;;2.30;1.50;;;;;;;24.11;42.79;100497.38;102511;1120;82247;-58
2021/05/26 04:41:53;;;;;;;2.50;1.30;;;;;;;24.79;41.60;100498.67;102516;1121;80280;-59
2021/05/26 04:43:59;;;;;;;2.80;1.60;;;;;;;25.19;41.94;100509.61;102474;1120;81249;-61
2021/05/26 04:46:08;;;;;;;3.20;1.20;;;;;;;25.39;41.24;100504.00;102515;1120;80585;-61
2021/05/26 04:48:13;;;;;;;2.70;1.40;;;;;;;25.61;39.48;100506.39;102492;1121;80973;-61
2021/05/26 04:50:21;;;;;;;1.80;1.00;;;;;;;25.85;38.15;100512.08;102480;1121;83443;-59
2021/05/26 04:52:27;;;;;;;2.70;1.20;;;;;;;25.88;38.21;100511.47;102501;1121;82657;-58
2021/05/26 04:54:32;;;;;;;2.00;1.30;;;;;;;26.42;37.79;100505.82;102502;1121;85148;-58
2021/05/26 04:56:38;;;;;;;2.90;1.10;;;;;;;26.87;36.95;100508.14;102491;1120;81764;-58
2021/05/26 04:58:49;;;;;;;3.40;1.90;;;;;;;27.13;36.87;100506.74;102490;1121;80927;-59
2021/05/26 05:00:55;;;;;;;2.40;1.20;;;;;;;27.14;36.15;100511.15;102499;1120;81420;-59
2021/05/26 05:03:01;;;;;;;1.80;1.00;;;;;;;27.39;35.46;100513.61;102490;1120;81126;-58
2021/05/26 05:05:10;;;;;;;2.50;1.30;;;;;;;27.36;35.07;100507.84;102535;1121;81608;-57
2021/05/26 05:07:18;;;;;;;2.10;1.20;;;;;;;28.06;34.66;100501.30;102488;1121;80961;-58
2021/05/26 05:09:24;;;;;;;1.60;0.90;;;;;;;27.91;33.27;100503.45;102504;1120;80921;-60
2021/05/26 05:11:30;;;;;;;2.10;1.10;;;;;;;28.07;34.03;100497.38;102486;1121;80607;-61
2021/05/26 05:13:36;;;;;;;1.80;1.00;;;;;;;28.26;33.51;100502.92;102522;1121;79809;-59
2021/05/26 05:15:41;;;;;;;1.60;1.20;;;;;;;28.20;33.46;100498.58;102466;1120;80712;-61
2021/05/26 05:17:49;;;;;;;3.80;1.30;;;;;;;28.41;33.00;100499.03;102494;1121;82205;-60
2021/05/26 05:19:56;;;;;;;4.20;1.00;;;;;;;28.80;32.40;100499.46;102497;1121;81263;-59
2021/05/26 05:22:01;;;;;;;1.90;1.10;;;;;;;28.75;31.30;100505.13;102513;1121;81020;-59
2021/05/26 05:24:09;;;;;;;1.70;1.00;;;;;;;28.45;31.68;100500.92;102482;1121;81838;-59
2021/05/26 05:26:15;;;;;;;2.30;1.10;;;;;;;28.86;30.90;100497.41;102479;1121;80231;-59
2021/05/26 05:28:21;;;;;;;2.60;1.10;;;;;;;28.66;30.85;100502.23;102474;1121;81995;-59
2021/05/26 05:30:28;;;;;;;2.60;1.10;;;;;;;29.14;30.39;100499.06;102512;1120;80860;-58
2021/05/26 05:32:34;;;;;;;2.70;1.00;;;;;;;28.92;30.47;100515.65;102470;1120;80098;-57
2021/05/26 05:34:40;;;;;;;2.10;0.90;;;;;;;28.87;30.75;100504.63;102494;1120;81582;-59
2021/05/26 05:36:45;;;;;;;2.50;1.20;;;;;;;29.71;30.19;100498.38;102496;1120;81017;-59
2021/05/26 05:38:51;;;;;;;3.40;1.20;;;;;;;30.24;29.85;100500.48;102513;1120;80225;-58
2021/05/26 05:41:00;;;;;;;2.00;1.50;;;;;;;30.24;29.75;100497.69;102659;1092;81897;-59
2021/05/26 05:43:06;;;;;;;2.60;1.00;;;;;;;29.93;29.10;100496.78;102935;1093;81912;-59
2021/05/26 05:45:13;;;;;;;2.70;1.30;;;;;;;29.71;29.12;100492.81;104102;1120;81030;-59
2021/05/26 05:47:20;;;;;;;3.70;1.20;;;;;;;29.69;28.24;100491.48;104099;1120;81008;-60
2021/05/26 05:49:25;;;;;;;2.60;1.00;;;;;;;29.84;28.08;100496.71;104095;1121;81365;-59
2021/05/26 05:51:31;;;;;;;1.70;1.20;;;;;;;29.92;27.55;100493.17;104092;1121;81896;-59
2021/05/26 05:53:36;;;;;;;2.50;1.20;;;;;;;29.83;27.85;100497.04;104107;1121;81936;-57
2021/05/26 05:55:42;;;;;;;1.90;1.20;;;;;;;30.29;27.07;100491.98;104082;1120;81976;-58
2021/05/26 05:57:48;;;;;;;2.90;1.00;;;;;;;30.44;27.59;100499.97;104126;1121;81921;-59
2021/05/26 05:59:54;;;;;;;2.00;1.10;;;;;;;30.34;27.92;100498.25;104099;1121;81462;-59
2021/05/26 06:02:00;;;;;;;1.90;1.10;;;;;;;30.25;27.24;100494.58;104069;1121;81091;-59
2021/05/26 06:04:06;;;;;;;1.80;1.00;;;;;;;30.24;27.85;100495.70;104093;1120;81618;-59
2021/05/26 06:06:12;;;;;;;3.70;2.10;;;;;;;30.34;27.08;100495.47;104093;1120;81382;-59
2021/05/26 06:08:18;;;;;;;2.60;1.30;;;;;;;30.68;27.42;100494.88;104098;1120;79884;-58
2021/05/26 06:10:24;;;;;;;2.40;1.00;;;;;;;30.72;26.93;100495.04;104103;1121;79928;-58
2021/05/26 06:14:34;;;;;;;1.60;1.00;;;;;;;30.20;27.01;100500.28;104055;1122;81646;-60
2021/05/26 06:16:43;;;;;;;1.90;1.10;;;;;;;29.84;27.11;100505.06;103997;1123;80187;-60
2021/05/26 06:18:48;;;;;;;3.80;1.10;;;;;;;28.34;27.75;100506.95;104026;1124;81969;-60
2021/05/26 06:20:54;;;;;;;2.40;1.30;;;;;;;27.70;28.61;100496.56;104019;1124;81273;-60
2021/05/26 06:23:00;;;;;;;3.10;1.00;;;;;;;28.20;28.39;100512.47;104025;1124;80456;-60
2021/05/26 06:25:08;;;;;;;1.80;1.00;;;;;;;27.83;28.53;100501.35;104018;1124;81314;-59
2021/05/26 06:27:14;;;;;;;2.50;0.90;;;;;;;27.70;28.27;100502.94;104027;1124;81062;-59
2021/05/26 06:29:20;;;;;;;2.60;1.20;;;;;;;26.91;29.21;100498.13;104025;1124;81295;-60
2021/05/26 06:31:29;;;;;;;1.50;0.90;;;;;;;27.55;29.31;100514.28;104030;1124;80230;-58
2021/05/26 06:33:34;;;;;;;1.60;0.90;;;;;;;27.02;29.75;100509.92;104020;1124;81453;-55
2021/05/26 06:35:40;;;;;;;4.40;0.80;;;;;;;26.05;30.15;100509.97;104019;1124;80213;-58
2021/05/26 06:37:46;;;;;;;2.20;0.90;;;;;;;25.02;30.93;100521.04;104013;1124;81499;-58
2021/05/26 06:39:52;;;;;;;1.30;0.80;;;;;;;25.17;32.62;100515.44;104022;1124;81111;-59
2021/05/26 06:41:57;;;;;;;2.10;1.00;;;;;;;27.17;31.39;100510.56;104020;1124;82169;-59
2021/05/26 06:44:04;;;;;;;1.40;0.80;;;;;;;27.88;29.87;100509.63;104020;1124;81680;-60
2021/05/26 06:46:09;;;;;;;1.20;0.70;;;;;;;26.86;29.46;100523.15;104022;1124;80311;-59
2021/05/26 06:48:15;;;;;;;1.20;0.60;;;;;;;27.42;29.60;100523.31;104016;1124;81450;-59
2021/05/26 06:50:21;;;;;;;1.10;0.80;;;;;;;28.65;28.46;100520.03;104019;1124;81836;-60
2021/05/26 06:52:27;;;;;;;1.70;0.80;;;;;;;28.15;27.99;100520.89;104021;1124;80763;-59
2021/05/26 06:54:36;;;;;;;4.20;0.90;;;;;;;28.77;28.46;100513.98;104026;1124;81540;-59
2021/05/26 06:56:41;;;;;;;1.20;0.60;;;;;;;29.16;27.91;100511.53;104021;1124;79765;-59
2021/05/26 06:58:47;;;;;;;2.60;0.80;;;;;;;28.99;27.66;100525.23;104021;1124;80226;-59
2021/05/26 07:00:52;;;;;;;1.50;0.80;;;;;;;28.32;27.81;100521.14;104027;1124;80286;-58
2021/05/26 07:02:58;;;;;;;0.90;0.60;;;;;;;27.63;28.48;100529.44;104023;1123;81064;-58
2021/05/26 07:05:04;;;;;;;2.00;0.90;;;;;;;27.00;27.91;100515.78;104018;1124;81396;-58
2021/05/26 07:07:10;;;;;;;1.30;0.70;;;;;;;26.29;29.00;100533.06;104026;1124;80326;-59
2021/05/26 07:09:16;;;;;;;1.40;0.80;;;;;;;25.36;30.74;100534.16;104017;1124;81099;-58
2021/05/26 07:11:21;;;;;;;4.30;1.00;;;;;;;25.41;31.52;100526.66;104024;1124;81378;-56
2021/05/26 07:13:27;;;;;;;2.10;0.90;;;;;;;26.84;30.32;100523.42;104038;1124;81693;-57
2021/05/26 07:15:33;;;;;;;1.40;0.90;;;;;;;28.14;29.81;100518.40;104022;1124;80540;-59
2021/05/26 07:17:39;;;;;;;1.70;0.90;;;;;;;28.95;28.27;100534.51;104035;1124;80883;-59
2021/05/26 07:19:44;;;;;;;1.20;0.70;;;;;;;27.62;27.96;100544.42;104017;1124;80274;-58
2021/05/26 07:21:50;;;;;;;2.10;0.80;;;;;;;26.00;29.17;100531.33;104016;1124;80519;-58
2021/05/26 07:23:55;;;;;;;2.70;0.70;;;;;;;24.58;30.47;100539.34;104018;1124;81812;-58
2021/05/26 07:26:04;;;;;;;1.60;0.80;;;;;;;23.42;31.30;100548.27;104025;1124;80046;-58
2021/05/26 07:28:13;;;;;;;1.80;0.80;;;;;;;22.36;33.11;100554.17;104018;1124;80006;-58
2021/05/26 07:30:21;;;;;;;1.50;0.60;;;;;;;21.56;34.15;100544.00;104025;1124;81166;-58
2021/05/26 07:32:27;;;;;;;1.70;0.70;;;;;;;21.44;34.79;100535.88;104040;1124;79761;-58
2021/05/26 07:34:35;;;;;;;2.20;0.80;;;;;;;21.74;35.45;100540.89;104039;1124;80658;-58
2021/05/26 07:36:41;;;;;;;1.50;0.70;;;;;;;22.75;34.81;100542.64;104031;1124;80395;-58
2021/05/26 07:38:50;;;;;;;1.90;0.80;;;;;;;22.74;34.45;100535.45;104017;1124;82624;-59
2021/05/26 07:40:56;;;;;;;2.10;0.90;;;;;;;22.39;34.53;100545.39;104024;1123;79610;-57
2021/05/26 07:43:01;;;;;;;2.80;0.90;;;;;;;22.07;34.89;100532.45;104026;1124;81466;-57
2021/05/26 07:45:10;;;;;;;2.40;0.90;;;;;;;22.43;34.38;100529.98;104022;1124;81856;-57
2021/05/26 07:47:16;;;;;;;3.00;0.80;;;;;;;22.85;34.80;100537.18;104030;1124;80896;-58
2021/05/26 07:49:21;;;;;;;2.20;0.80;;;;;;;23.46;34.96;100526.47;104027;1124;80535;-58
2021/05/26 07:51:29;;;;;;;1.70;0.80;;;;;;;23.85;33.98;100524.08;104023;1124;80688;-58
2021/05/26 07:53:35;;;;;;;2.80;1.10;;;;;;;24.44;33.96;100529.95;104010;1124;80236;-57
2021/05/26 07:55:40;;;;;;;2.20;0.70;;;;;;;24.10;33.76;100528.84;104016;1124;82561;-57
2021/05/26 07:57:46;;;;;;;1.40;0.60;;;;;;;23.30;32.86;100541.27;104020;1124;80887;-57
2021/05/26 07:59:52;;;;;;;1.80;0.80;;;;;;;22.83;32.70;100531.11;104026;1124;80798;-57
2021/05/26 08:01:58;;;;;;;1.80;0.60;;;;;;;22.11;33.17;100549.27;104023;1124;81248;-58
2021/05/26 08:04:04;;;;;;;1.70;0.80;;;;;;;21.42;34.23;100543.56;104028;1124;81039;-57
2021/05/26 08:06:10;;;;;;;3.20;0.70;;;;;;;20.89;34.80;100533.22;104021;1124;80938;-58
2021/05/26 08:08:16;;;;;;;4.10;0.80;;;;;;;21.13;36.50;100540.16;104027;1124;80442;-58
2021/05/26 08:10:22;;;;;;;1.80;0.70;;;;;;;22.33;35.17;100534.31;104032;1124;80939;-58
2021/05/26 08:12:27;;;;;;;1.70;0.70;;;;;;;21.99;34.66;100532.09;104011;1124;82455;-57
2021/05/26 08:14:36;;;;;;;1.40;0.70;;;;;;;21.65;35.03;100526.77;104034;1124;80003;-57
2021/05/26 08:16:42;;;;;;;2.30;0.80;;;;;;;21.55;35.75;100521.16;104028;1124;80839;-57
2021/05/26 08:18:50;;;;;;;1.70;0.90;;;;;;;21.30;35.40;100523.62;104029;1124;81552;-56
2021/05/26 08:20:56;;;;;;;4.40;1.30;;;;;;;20.68;35.82;100533.19;104024;1124;81373;-56
2021/05/26 08:23:01;;;;;;;2.50;0.90;;;;;;;20.31;37.28;100532.88;104019;1124;80864;-56
2021/05/26 08:25:10;;;;;;;2.30;0.90;;;;;;;21.57;37.94;100529.14;104019;1124;80978;-60
2021/05/26 08:27:19;;;;;;;1.90;0.80;;;;;;;23.13;36.52;100522.17;104024;1124;81622;-60
2021/05/26 08:29:26;;;;;;;2.30;0.70;;;;;;;23.97;34.53;100519.98;104027;1124;79993;-60
2021/05/26 08:31:32;;;;;;;1.70;0.60;;;;;;;23.48;34.08;100522.37;104027;1124;81562;-59
2021/05/26 08:33:40;;;;;;;2.50;0.80;;;;;;;22.53;34.33;100525.38;104012;1124;81055;-60
2021/05/26 08:35:49;;;;;;;2.80;0.60;;;;;;;21.88;35.16;100525.66;104017;1124;81413;-59
2021/05/26 08:37:54;;;;;;;2.80;0.80;;;;;;;21.39;35.51;100524.83;104028;1124;80812;-59
2021/05/26 08:40:00;;;;;;;2.20;0.80;;;;;;;20.99;35.73;100533.34;104024;1124;81869;-60
2021/05/26 08:42:06;;;;;;;2.70;0.80;;;;;;;20.56;36.17;100528.63;104015;1124;80599;-60
2021/05/26 08:44:14;;;;;;;2.00;0.90;;;;;;;21.07;37.13;100532.94;104023;1124;80038;-60
2021/05/26 08:46:21;;;;;;;2.50;1.00;;;;;;;21.90;36.49;100526.22;104026;1124;80156;-60
2021/05/26 08:48:32;;;;;;;2.70;0.80;;;;;;;21.59;35.73;100524.23;104020;1124;80653;-59
2021/05/26 08:50:37;;;;;;;2.50;0.70;;;;;;;21.88;36.32;100533.08;104029;1124;80726;-57
2021/05/26 08:52:43;;;;;;;3.70;1.00;;;;;;;21.79;35.58;100529.94;104023;1124;80563;-58
2021/05/26 08:54:49;;;;;;;2.10;0.80;;;;;;;21.43;35.76;100525.13;104016;1124;82230;-59
2021/05/26 08:56:55;;;;;;;2.10;0.90;;;;;;;21.25;35.73;100528.22;104018;1124;81125;-59
2021/05/26 08:59:01;;;;;;;1.20;0.90;;;;;;;21.03;36.28;100534.52;104024;1124;80000;-60
2021/05/26 09:01:07;;;;;;;3.60;1.10;;;;;;;20.77;36.47;100529.73;104018;1124;81733;-57
2021/05/26 09:03:15;;;;;;;2.10;0.80;;;;;;;20.47;36.46;100535.61;104009;1124;81521;-57
2021/05/26 09:05:27;;;;;;;1.80;0.80;;;;;;;20.21;38.06;100536.27;104011;1124;82057;-60
2021/05/26 09:07:33;;;;;;;2.30;0.80;;;;;;;20.36;38.41;100530.20;104026;1125;80444;-61
2021/05/26 09:09:55;;;;;;;2.60;1.10;;;;;;;20.31;38.09;100533.71;104000;1125;81734;-58
2021/05/26 09:12:01;;;;;;;1.70;0.90;;;;;;;20.29;38.37;100530.39;104017;1124;80630;-58
2021/05/26 09:14:14;;;;;;;2.30;1.00;;;;;;;20.14;38.17;100524.61;104020;1124;81259;-57
2021/05/26 09:16:36;;;;;;;2.70;0.80;;;;;;;20.16;38.48;100530.67;104005;1124;81695;-61
2021/05/26 09:18:58;;;;;;;3.40;1.00;;;;;;;20.32;38.35;100521.66;103998;1124;81116;-60
2021/05/26 09:21:04;;;;;;;1.90;0.80;;;;;;;20.21;38.33;100519.80;104014;1124;80166;-58
2021/05/26 09:23:12;;;;;;;1.80;0.90;;;;;;;20.00;38.20;100506.80;104010;1125;81212;-59
2021/05/26 09:25:18;;;;;;;5.40;0.80;;;;;;;20.07;38.55;100512.14;104018;1124;81140;-56
2021/05/26 09:27:24;;;;;;;3.40;0.90;;;;;;;20.39;39.59;100510.50;104016;1124;80724;-57
2021/05/26 09:29:33;;;;;;;1.40;0.80;;;;;;;20.82;38.39;100505.09;104020;1124;81796;-58
2021/05/26 09:31:39;;;;;;;3.10;1.10;;;;;;;20.98;38.44;100497.91;104023;1125;80424;-57
2021/05/26 09:33:48;;;;;;;4.50;1.30;;;;;;;21.16;37.99;100503.94;104013;1124;80918;-57
2021/05/26 09:36:11;;;;;;;3.20;0.80;;;;;;;21.05;38.13;100504.87;104031;1124;81427;-59
2021/05/26 09:38:17;;;;;;;3.00;1.20;;;;;;;20.68;37.50;100502.98;104016;1124;81105;-60
2021/05/26 09:40:23;;;;;;;4.10;1.00;;;;;;;20.48;37.81;100515.33;104017;1124;81566;-60
2021/05/26 09:42:34;;;;;;;4.50;0.90;;;;;;;20.39;38.01;100518.73;104023;1124;81062;-58
2021/05/26 09:44:59;;;;;;;3.20;1.00;;;;;;;20.59;38.47;100508.91;104013;1124;80954;-59
2021/05/26 09:47:04;;;;;;;4.10;1.10;;;;;;;21.13;38.20;100501.70;104029;1124;80425;-59
2021/05/26 09:49:16;;;;;;;2.10;0.80;;;;;;;21.21;38.03;100494.08;104017;1124;82287;-59
2021/05/26 09:51:29;;;;;;;1.90;1.10;;;;;;;21.04;37.34;100510.63;104012;1124;80538;-59
2021/05/26 09:53:34;;;;;;;3.10;1.20;;;;;;;20.88;37.80;100511.48;104015;1124;80442;-57